createdAt,value
2023-04-01T00:00:40.581Z,987.27
2023-04-01T00:01:40.560Z,987.30
2023-04-01T00:02:40.649Z,987.23
2023-04-01T00:03:40.668Z,987.19
2023-04-01T00:04:40.585Z,987.21
2023-04-01T00:05:40.555Z,987.20
2023-04-01T00:06:40.517Z,987.21
2023-04-01T00:07:40.501Z,987.22
2023-04-01T00:08:40.520Z,987.21
2023-04-01T00:09:40.478Z,987.20
2023-04-01T00:10:40.470Z,987.25
2023-04-01T00:11:47.358Z,987.24
2023-04-01T00:12:40.450Z,987.22
2023-04-01T00:13:40.452Z,987.21
2023-04-01T00:14:40.423Z,987.22
2023-04-01T00:15:40.408Z,987.21
2023-04-01T00:16:40.497Z,987.22
2023-04-01T00:17:40.406Z,987.20
2023-04-01T00:18:40.413Z,987.21
2023-04-01T00:19:40.372Z,987.22
2023-04-01T00:20:40.369Z,987.23
2023-04-01T00:21:40.345Z,987.27
2023-04-01T00:22:40.341Z,987.22
2023-04-01T00:23:40.336Z,987.22
2023-04-01T00:24:40.342Z,987.20
2023-04-01T00:25:40.305Z,987.23
2023-04-01T00:26:40.297Z,987.22
2023-04-01T00:27:40.288Z,987.22
2023-04-01T00:28:40.279Z,987.15
2023-04-01T00:29:40.285Z,987.19
2023-04-01T00:30:40.253Z,987.17
2023-04-01T00:31:40.468Z,987.17
2023-04-01T00:32:40.272Z,987.14
2023-04-01T00:33:40.221Z,987.19
2023-04-01T00:34:40.215Z,987.13
2023-04-01T00:35:40.226Z,987.18
2023-04-01T00:36:40.266Z,987.13
2023-04-01T00:37:40.176Z,987.13
2023-04-01T00:38:40.180Z,987.15
2023-04-01T00:39:40.164Z,987.13
2023-04-01T00:40:40.173Z,987.13
2023-04-01T00:41:40.143Z,987.15
2023-04-01T00:42:40.136Z,987.17
2023-04-01T00:43:40.129Z,987.17
2023-04-01T00:44:40.101Z,987.09
2023-04-01T00:45:40.109Z,987.11
2023-04-01T00:46:40.171Z,987.13
2023-04-01T00:47:40.167Z,987.17
2023-04-01T00:48:40.069Z,987.10
2023-04-01T00:49:40.060Z,987.08
2023-04-01T00:50:40.045Z,987.08
2023-04-01T00:51:40.053Z,987.12
2023-04-01T00:52:40.054Z,987.11
2023-04-01T00:53:40.009Z,987.07
2023-04-01T00:54:40.006Z,987.13
2023-04-01T00:55:39.982Z,987.12
2023-04-01T00:56:39.980Z,987.12
2023-04-01T00:57:39.986Z,987.10
2023-04-01T00:58:39.968Z,987.11
2023-04-01T00:59:39.949Z,987.08
2023-04-01T01:00:39.958Z,987.09
2023-04-01T01:01:39.921Z,987.08
2023-04-01T01:02:40.051Z,987.09
2023-04-01T01:03:39.927Z,987.08
2023-04-01T01:04:39.891Z,987.07
2023-04-01T01:05:48.749Z,987.02
2023-04-01T01:06:39.924Z,987.07
2023-04-01T01:07:39.861Z,987.07
2023-04-01T01:08:39.848Z,987.09
2023-04-01T01:09:39.863Z,987.01
2023-04-01T01:10:39.823Z,987.06
2023-04-01T01:11:43.583Z,987.01
2023-04-01T01:12:39.804Z,987.05
2023-04-01T01:13:39.793Z,987.04
2023-04-01T01:14:39.810Z,987.05
2023-04-01T01:15:39.781Z,987.05
2023-04-01T01:16:39.845Z,987.04
2023-04-01T01:17:39.845Z,986.99
2023-04-01T01:18:39.746Z,987.02
2023-04-01T01:19:39.747Z,987.00
2023-04-01T01:20:39.719Z,987.02
2023-04-01T01:21:39.700Z,987.03
2023-04-01T01:22:39.694Z,987.02
2023-04-01T01:23:39.691Z,986.98
2023-04-01T01:24:39.692Z,986.98
2023-04-01T01:25:39.671Z,987.03
2023-04-01T01:26:39.648Z,986.94
2023-04-01T01:27:39.661Z,986.96
2023-04-01T01:28:39.627Z,987.02
2023-04-01T01:29:39.621Z,986.97
2023-04-01T01:30:39.633Z,986.96
2023-04-01T01:31:39.624Z,987.02
2023-04-01T01:32:39.601Z,986.99
2023-04-01T01:33:39.583Z,987.00
2023-04-01T01:34:39.561Z,986.99
2023-04-01T01:35:39.569Z,986.99
2023-04-01T01:36:39.564Z,986.96
2023-04-01T01:37:39.559Z,986.98
2023-04-01T01:38:39.532Z,987.01
2023-04-01T01:39:39.521Z,987.06
2023-04-01T01:40:39.521Z,987.06
2023-04-01T01:41:39.488Z,986.99
2023-04-01T01:42:39.492Z,987.01
2023-04-01T01:43:39.497Z,987.00
2023-04-01T01:44:39.475Z,987.01
2023-04-01T01:45:39.457Z,987.00
2023-04-01T01:46:39.455Z,987.03
2023-04-01T01:47:39.483Z,987.05
2023-04-01T01:48:39.427Z,987.02
2023-04-01T01:49:39.428Z,987.00
2023-04-01T01:50:39.393Z,987.02
2023-04-01T01:51:39.389Z,987.04
2023-04-01T01:52:39.367Z,987.06
2023-04-01T01:53:39.358Z,987.03
2023-04-01T01:54:39.350Z,987.07
2023-04-01T01:55:39.359Z,987.04
2023-04-01T01:56:39.347Z,987.04
2023-04-01T01:57:39.316Z,987.00
2023-04-01T01:58:39.298Z,987.03
2023-04-01T01:59:39.286Z,987.08
2023-04-01T02:00:39.321Z,987.03
2023-04-01T02:01:39.341Z,987.07
2023-04-01T02:02:39.308Z,987.07
2023-04-01T02:03:39.250Z,987.03
2023-04-01T02:04:39.289Z,987.04
2023-04-01T02:05:39.228Z,987.09
2023-04-01T02:06:39.217Z,987.03
2023-04-01T02:07:39.229Z,987.11
2023-04-01T02:08:39.189Z,987.03
2023-04-01T02:09:39.175Z,987.02
2023-04-01T02:10:39.180Z,987.10
2023-04-01T02:11:39.179Z,987.04
2023-04-01T02:12:39.168Z,987.02
2023-04-01T02:13:39.133Z,986.99
2023-04-01T02:14:39.117Z,987.08
2023-04-01T02:15:39.148Z,987.06
2023-04-01T02:16:39.105Z,986.98
2023-04-01T02:17:39.135Z,987.06
2023-04-01T02:18:39.075Z,987.03
2023-04-01T02:19:39.066Z,987.07
2023-04-01T02:20:39.057Z,987.06
2023-04-01T02:21:39.046Z,987.03
2023-04-01T02:22:39.056Z,987.03
2023-04-01T02:23:39.021Z,987.04
2023-04-01T02:24:39.010Z,987.03
2023-04-01T02:25:39.000Z,987.04
2023-04-01T02:26:38.994Z,987.00
2023-04-01T02:27:38.980Z,987.06
2023-04-01T02:28:39.004Z,987.05
2023-04-01T02:29:38.961Z,987.04
2023-04-01T02:30:38.942Z,987.08
2023-04-01T02:31:38.973Z,987.10
2023-04-01T02:32:38.999Z,987.09
2023-04-01T02:33:38.921Z,987.05
2023-04-01T02:34:38.901Z,987.03
2023-04-01T02:35:38.908Z,987.03
2023-04-01T02:36:38.878Z,987.02
2023-04-01T02:37:40.427Z,986.99
2023-04-01T02:38:38.887Z,987.01
2023-04-01T02:39:38.849Z,986.98
2023-04-01T02:40:38.841Z,986.97
2023-04-01T02:41:38.834Z,986.96
2023-04-01T02:42:38.812Z,986.94
2023-04-01T02:43:38.806Z,986.97
2023-04-01T02:44:38.820Z,986.95
2023-04-01T02:45:38.793Z,987.01
2023-04-01T02:46:38.949Z,986.94
2023-04-01T02:47:38.862Z,986.96
2023-04-01T02:48:38.763Z,986.90
2023-04-01T02:49:38.778Z,986.90
2023-04-01T02:50:38.726Z,986.90
2023-04-01T02:51:38.721Z,986.90
2023-04-01T02:52:38.733Z,986.88
2023-04-01T02:53:38.695Z,986.93
2023-04-01T02:54:38.709Z,986.91
2023-04-01T02:55:38.680Z,986.82
2023-04-01T02:56:38.664Z,986.89
2023-04-01T02:57:38.668Z,986.87
2023-04-01T02:58:38.645Z,986.85
2023-04-01T02:59:38.656Z,986.85
2023-04-01T03:00:38.629Z,986.86
2023-04-01T03:01:38.667Z,986.89
2023-04-01T03:02:38.657Z,986.88
2023-04-01T03:03:38.620Z,986.87
2023-04-01T03:04:38.574Z,986.87
2023-04-01T03:05:38.566Z,986.87
2023-04-01T03:06:38.557Z,986.90
2023-04-01T03:07:38.573Z,986.87
2023-04-01T03:08:38.549Z,986.92
2023-04-01T03:09:38.533Z,986.95
2023-04-01T03:10:38.517Z,986.96
2023-04-01T03:11:38.499Z,986.97
2023-04-01T03:12:38.516Z,986.93
2023-04-01T03:13:38.503Z,986.91
2023-04-01T03:14:38.479Z,986.97
2023-04-01T03:15:38.466Z,986.95
2023-04-01T03:16:38.480Z,986.97
2023-04-01T03:17:38.461Z,986.94
2023-04-01T03:18:38.458Z,986.91
2023-04-01T03:19:53.374Z,986.95
2023-04-01T03:20:38.402Z,986.96
2023-04-01T03:21:38.388Z,986.93
2023-04-01T03:22:39.664Z,987.02
2023-04-01T03:23:38.381Z,986.94
2023-04-01T03:24:38.385Z,986.97
2023-04-01T03:25:38.371Z,986.96
2023-04-01T03:26:38.337Z,987.00
2023-04-01T03:27:38.333Z,986.98
2023-04-01T03:28:38.316Z,987.05
2023-04-01T03:29:38.330Z,987.07
2023-04-01T03:30:38.351Z,987.07
2023-04-01T03:31:38.298Z,987.08
2023-04-01T03:32:38.341Z,987.06
2023-04-01T03:33:38.263Z,987.02
2023-04-01T03:34:38.244Z,986.99
2023-04-01T03:35:38.250Z,987.06
2023-04-01T03:36:38.276Z,987.07
2023-04-01T03:37:38.243Z,987.05
2023-04-01T03:38:38.203Z,987.06
2023-04-01T03:39:38.191Z,987.06
2023-04-01T03:40:38.190Z,987.09
2023-04-01T03:41:38.196Z,987.05
2023-04-01T03:42:38.205Z,987.09
2023-04-01T03:43:38.160Z,987.06
2023-04-01T03:44:38.147Z,987.07
2023-04-01T03:45:38.143Z,987.08
2023-04-01T03:46:38.313Z,987.10
2023-04-01T03:47:38.154Z,987.10
2023-04-01T03:48:38.097Z,987.11
2023-04-01T03:49:38.093Z,987.10
2023-04-01T03:50:38.073Z,987.11
2023-04-01T03:51:38.063Z,987.16
2023-04-01T03:52:38.071Z,987.11
2023-04-01T03:53:38.036Z,987.16
2023-04-01T03:54:38.046Z,987.10
2023-04-01T03:55:38.022Z,987.12
2023-04-01T03:56:38.031Z,987.13
2023-04-01T03:57:38.003Z,987.09
2023-04-01T03:58:38.013Z,987.14
2023-04-01T03:59:37.984Z,987.10
2023-04-01T04:00:37.964Z,987.11
2023-04-01T04:01:37.968Z,987.13
2023-04-01T04:02:38.033Z,987.18
2023-04-01T04:03:38.053Z,987.17
2023-04-01T04:04:37.987Z,987.14
2023-04-01T04:05:37.917Z,987.12
2023-04-01T04:06:37.923Z,987.18
2023-04-01T04:07:37.902Z,987.17
2023-04-01T04:08:37.880Z,987.16
2023-04-01T04:09:37.878Z,987.14
2023-04-01T04:10:37.861Z,987.14
2023-04-01T04:11:37.870Z,987.18
2023-04-01T04:12:37.829Z,987.20
2023-04-01T04:13:37.824Z,987.18
2023-04-01T04:14:37.818Z,987.25
2023-04-01T04:15:37.807Z,987.21
2023-04-01T04:16:37.814Z,987.20
2023-04-01T04:17:37.808Z,987.23
2023-04-01T04:18:37.775Z,987.19
2023-04-01T04:19:37.778Z,987.24
2023-04-01T04:20:37.755Z,987.24
2023-04-01T04:21:37.740Z,987.24
2023-04-01T04:22:37.740Z,987.25
2023-04-01T04:23:37.740Z,987.23
2023-04-01T04:24:37.704Z,987.26
2023-04-01T04:25:37.689Z,987.23
2023-04-01T04:26:37.688Z,987.27
2023-04-01T04:27:37.688Z,987.25
2023-04-01T04:28:37.694Z,987.28
2023-04-01T04:29:37.685Z,987.27
2023-04-01T04:30:37.657Z,987.33
2023-04-01T04:31:37.640Z,987.30
2023-04-01T04:32:37.633Z,987.34
2023-04-01T04:33:37.616Z,987.37
2023-04-01T04:34:37.590Z,987.36
2023-04-01T04:35:37.583Z,987.37
2023-04-01T04:36:37.612Z,987.34
2023-04-01T04:37:37.575Z,987.36
2023-04-01T04:38:37.549Z,987.40
2023-04-01T04:39:37.543Z,987.38
2023-04-01T04:40:37.536Z,987.42
2023-04-01T04:41:37.732Z,987.35
2023-04-01T04:42:37.505Z,987.34
2023-04-01T04:43:37.491Z,987.41
2023-04-01T04:44:37.491Z,987.41
2023-04-01T04:45:37.472Z,987.42
2023-04-01T04:46:37.532Z,987.43
2023-04-01T04:47:37.512Z,987.42
2023-04-01T04:48:37.461Z,987.51
2023-04-01T04:49:37.456Z,987.46
2023-04-01T04:50:37.425Z,987.45
2023-04-01T04:51:37.414Z,987.41
2023-04-01T04:52:37.426Z,987.47
2023-04-01T04:53:37.387Z,987.50
2023-04-01T04:54:37.397Z,987.52
2023-04-01T04:55:37.360Z,987.51
2023-04-01T04:56:37.357Z,987.51
2023-04-01T04:57:37.352Z,987.58
2023-04-01T04:58:37.337Z,987.54
2023-04-01T04:59:37.315Z,987.55
2023-04-01T05:00:37.334Z,987.51
2023-04-01T05:01:37.337Z,987.58
2023-04-01T05:02:37.363Z,987.55
2023-04-01T05:03:37.322Z,987.56
2023-04-01T05:04:37.270Z,987.59
2023-04-01T05:05:37.257Z,987.56
2023-04-01T05:06:37.270Z,987.52
2023-04-01T05:07:37.242Z,987.58
2023-04-01T05:08:37.233Z,987.62
2023-04-01T05:09:37.238Z,987.60
2023-04-01T05:10:37.201Z,987.61
2023-04-01T05:11:37.219Z,987.65
2023-04-01T05:12:37.171Z,987.63
2023-04-01T05:13:37.170Z,987.64
2023-04-01T05:14:37.162Z,987.62
2023-04-01T05:15:37.143Z,987.64
2023-04-01T05:16:37.196Z,987.68
2023-04-01T05:17:37.136Z,987.68
2023-04-01T05:18:37.137Z,987.68
2023-04-01T05:19:37.104Z,987.70
2023-04-01T05:20:37.109Z,987.68
2023-04-01T05:21:37.097Z,987.67
2023-04-01T05:22:37.092Z,987.69
2023-04-01T05:23:37.053Z,987.72
2023-04-01T05:24:37.056Z,987.70
2023-04-01T05:25:37.038Z,987.73
2023-04-01T05:26:37.032Z,987.73
2023-04-01T05:27:37.064Z,987.75
2023-04-01T05:28:37.040Z,987.74
2023-04-01T05:29:37.022Z,987.74
2023-04-01T05:30:37.049Z,987.75
2023-04-01T05:31:36.988Z,987.72
2023-04-01T05:32:37.476Z,987.73
2023-04-01T05:33:36.954Z,987.74
2023-04-01T05:34:36.941Z,987.80
2023-04-01T05:35:37.027Z,987.77
2023-04-01T05:36:36.959Z,987.77
2023-04-01T05:37:36.902Z,987.77
2023-04-01T05:38:36.901Z,987.76
2023-04-01T05:39:36.892Z,987.80
2023-04-01T05:40:36.875Z,987.80
2023-04-01T05:41:36.861Z,987.80
2023-04-01T05:42:38.295Z,987.84
2023-04-01T05:43:36.836Z,987.86
2023-04-01T05:44:36.847Z,987.84
2023-04-01T05:45:36.817Z,987.88
2023-04-01T05:46:36.987Z,987.86
2023-04-01T05:47:36.847Z,987.87
2023-04-01T05:48:36.820Z,987.85
2023-04-01T05:49:36.789Z,987.89
2023-04-01T05:50:36.777Z,987.92
2023-04-01T05:51:36.753Z,987.87
2023-04-01T05:52:36.768Z,987.89
2023-04-01T05:53:36.729Z,987.86
2023-04-01T05:54:36.749Z,987.89
2023-04-01T05:55:36.714Z,987.89
2023-04-01T05:56:36.710Z,987.90
2023-04-01T05:57:36.768Z,987.90
2023-04-01T05:58:36.676Z,987.90
2023-04-01T05:59:36.686Z,987.90
2023-04-01T06:00:36.647Z,987.92
2023-04-01T06:01:36.646Z,987.89
2023-04-01T06:02:36.707Z,987.92
2023-04-01T06:03:36.751Z,987.93
2023-04-01T06:04:36.686Z,987.93
2023-04-01T06:05:36.630Z,987.97
2023-04-01T06:06:36.591Z,987.98
2023-04-01T06:07:36.570Z,987.99
2023-04-01T06:08:36.638Z,987.97
2023-04-01T06:09:36.554Z,987.97
2023-04-01T06:10:36.557Z,988.00
2023-04-01T06:11:36.550Z,987.98
2023-04-01T06:12:36.521Z,988.06
2023-04-01T06:13:36.505Z,988.06
2023-04-01T06:14:36.500Z,988.06
2023-04-01T06:15:36.485Z,988.08
2023-04-01T06:16:36.528Z,988.04
2023-04-01T06:17:36.525Z,988.05
2023-04-01T06:18:36.451Z,988.10
2023-04-01T06:19:36.531Z,988.12
2023-04-01T06:20:36.426Z,988.13
2023-04-01T06:21:36.471Z,988.14
2023-04-01T06:22:36.501Z,988.15
2023-04-01T06:23:36.402Z,988.12
2023-04-01T06:24:36.395Z,988.16
2023-04-01T06:25:36.438Z,988.19
2023-04-01T06:26:36.371Z,988.18
2023-04-01T06:27:36.405Z,988.24
2023-04-01T06:28:36.364Z,988.20
2023-04-01T06:29:36.390Z,988.24
2023-04-01T06:30:36.331Z,988.21
2023-04-01T06:31:36.339Z,988.22
2023-04-01T06:32:36.414Z,988.28
2023-04-01T06:33:36.317Z,988.21
2023-04-01T06:34:36.289Z,988.22
2023-04-01T06:35:36.455Z,988.25
2023-04-01T06:36:36.293Z,988.24
2023-04-01T06:37:36.264Z,988.26
2023-04-01T06:38:36.263Z,988.23
2023-04-01T06:39:36.451Z,988.28
2023-04-01T06:40:36.221Z,988.28
2023-04-01T06:41:36.208Z,988.27
2023-04-01T06:42:36.203Z,988.27
2023-04-01T06:43:36.189Z,988.29
2023-04-01T06:44:36.194Z,988.29
2023-04-01T06:45:36.396Z,988.32
2023-04-01T06:46:36.164Z,988.31
2023-04-01T06:47:36.150Z,988.28
2023-04-01T06:48:36.176Z,988.26
2023-04-01T06:49:36.153Z,988.30
2023-04-01T06:50:36.115Z,988.33
2023-04-01T06:51:36.097Z,988.34
2023-04-01T06:52:36.093Z,988.33
2023-04-01T06:53:36.078Z,988.31
2023-04-01T06:54:36.076Z,988.34
2023-04-01T06:55:36.087Z,988.34
2023-04-01T06:56:36.064Z,988.33
2023-04-01T06:57:36.034Z,988.34
2023-04-01T06:58:36.032Z,988.30
2023-04-01T06:59:36.043Z,988.34
2023-04-01T07:00:36.027Z,988.38
2023-04-01T07:01:36.035Z,988.40
2023-04-01T07:02:36.042Z,988.37
2023-04-01T07:03:35.964Z,988.40
2023-04-01T07:04:35.995Z,988.40
2023-04-01T07:05:35.965Z,988.39
2023-04-01T07:06:35.933Z,988.44
2023-04-01T07:07:35.931Z,988.40
2023-04-01T07:08:35.916Z,988.36
2023-04-01T07:09:35.899Z,988.41
2023-04-01T07:10:35.920Z,988.44
2023-04-01T07:11:35.882Z,988.39
2023-04-01T07:12:35.873Z,988.37
2023-04-01T07:13:35.860Z,988.43
2023-04-01T07:14:35.858Z,988.39
2023-04-01T07:15:35.835Z,988.41
2023-04-01T07:16:35.898Z,988.43
2023-04-01T07:17:35.821Z,988.44
2023-04-01T07:18:35.802Z,988.45
2023-04-01T07:19:35.789Z,988.47
2023-04-01T07:20:35.794Z,988.45
2023-04-01T07:21:35.816Z,988.50
2023-04-01T07:22:35.787Z,988.49
2023-04-01T07:23:35.749Z,988.47
2023-04-01T07:24:35.766Z,988.51
2023-04-01T07:25:35.996Z,988.50
2023-04-01T07:26:35.744Z,988.45
2023-04-01T07:27:35.703Z,988.48
2023-04-01T07:28:35.704Z,988.51
2023-04-01T07:29:35.693Z,988.56
2023-04-01T07:30:35.683Z,988.53
2023-04-01T07:31:35.732Z,988.56
2023-04-01T07:32:36.351Z,988.53
2023-04-01T07:33:35.638Z,988.55
2023-04-01T07:34:35.636Z,988.58
2023-04-01T07:35:35.827Z,988.55
2023-04-01T07:36:35.617Z,988.57
2023-04-01T07:37:35.622Z,988.52
2023-04-01T07:38:35.604Z,988.55
2023-04-01T07:39:35.581Z,988.55
2023-04-01T07:40:35.561Z,988.57
2023-04-01T07:41:35.552Z,988.56
2023-04-01T07:42:35.591Z,988.59
2023-04-01T07:43:35.535Z,988.60
2023-04-01T07:44:35.518Z,988.60
2023-04-01T07:45:35.974Z,988.60
2023-04-01T07:46:35.522Z,988.59
2023-04-01T07:47:35.546Z,988.63
2023-04-01T07:48:35.482Z,988.67
2023-04-01T07:49:35.470Z,988.68
2023-04-01T07:50:35.463Z,988.70
2023-04-01T07:51:35.444Z,988.72
2023-04-01T07:52:35.468Z,988.71
2023-04-01T07:53:35.448Z,988.73
2023-04-01T07:54:35.438Z,988.75
2023-04-01T07:55:35.876Z,988.72
2023-04-01T07:56:35.479Z,988.77
2023-04-01T07:57:35.608Z,988.74
2023-04-01T07:58:35.534Z,988.74
2023-04-01T07:59:35.516Z,988.81
2023-04-01T08:00:35.431Z,988.78
2023-04-01T08:01:35.511Z,988.82
2023-04-01T08:02:35.498Z,988.82
2023-04-01T08:03:35.498Z,988.86
2023-04-01T08:04:35.415Z,988.84
2023-04-01T08:05:35.560Z,988.84
2023-04-01T08:06:35.285Z,988.88
2023-04-01T08:07:35.315Z,988.89
2023-04-01T08:08:35.391Z,988.90
2023-04-01T08:09:35.255Z,988.90
2023-04-01T08:10:35.320Z,988.93
2023-04-01T08:11:35.228Z,988.94
2023-04-01T08:12:35.219Z,988.92
2023-04-01T08:13:35.354Z,988.97
2023-04-01T08:14:35.274Z,988.98
2023-04-01T08:15:35.484Z,988.96
2023-04-01T08:16:35.204Z,988.99
2023-04-01T08:17:35.183Z,988.99
2023-04-01T08:18:35.158Z,988.99
2023-04-01T08:19:35.164Z,989.06
2023-04-01T08:20:35.139Z,989.06
2023-04-01T08:21:35.117Z,989.05
2023-04-01T08:22:35.193Z,989.05
2023-04-01T08:23:35.103Z,989.06
2023-04-01T08:24:46.578Z,989.08
2023-04-01T08:25:35.311Z,989.08
2023-04-01T08:26:35.063Z,989.05
2023-04-01T08:27:35.048Z,989.06
2023-04-01T08:28:35.085Z,989.04
2023-04-01T08:29:35.021Z,989.05
2023-04-01T08:30:35.042Z,989.06
2023-04-01T08:31:35.062Z,989.08
2023-04-01T08:32:35.038Z,989.08
2023-04-01T08:33:34.985Z,989.10
2023-04-01T08:34:34.970Z,989.11
2023-04-01T08:35:37.705Z,989.09
2023-04-01T08:36:34.967Z,989.14
2023-04-01T08:37:34.937Z,989.15
2023-04-01T08:38:34.933Z,989.21
2023-04-01T08:39:35.166Z,989.18
2023-04-01T08:40:34.937Z,989.20
2023-04-01T08:41:35.004Z,989.18
2023-04-01T08:42:34.888Z,989.20
2023-04-01T08:43:34.871Z,989.23
2023-04-01T08:44:34.864Z,989.18
2023-04-01T08:45:35.146Z,989.22
2023-04-01T08:46:34.860Z,989.18
2023-04-01T08:47:34.849Z,989.16
2023-04-01T08:48:34.815Z,989.27
2023-04-01T08:49:34.808Z,989.22
2023-04-01T08:50:34.805Z,989.21
2023-04-01T08:51:34.999Z,989.25
2023-04-01T08:52:34.845Z,989.23
2023-04-01T08:53:34.769Z,989.26
2023-04-01T08:54:34.764Z,989.26
2023-04-01T08:55:35.002Z,989.30
2023-04-01T08:56:34.736Z,989.29
2023-04-01T08:57:34.844Z,989.30
2023-04-01T08:58:34.715Z,989.28
2023-04-01T08:59:34.693Z,989.29
2023-04-01T09:00:34.702Z,989.31
2023-04-01T09:01:34.913Z,989.27
2023-04-01T09:02:34.816Z,989.30
2023-04-01T09:03:34.785Z,989.35
2023-04-01T09:04:34.793Z,989.35
2023-04-01T09:05:34.833Z,989.35
2023-04-01T09:06:34.624Z,989.43
2023-04-01T09:07:34.607Z,989.39
2023-04-01T09:08:34.649Z,989.40
2023-04-01T09:09:34.589Z,989.42
2023-04-01T09:10:34.579Z,989.42
2023-04-01T09:11:34.599Z,989.45
2023-04-01T09:12:34.566Z,989.45
2023-04-01T09:13:34.542Z,989.45
2023-04-01T09:14:34.562Z,989.40
2023-04-01T09:15:34.786Z,989.45
2023-04-01T09:16:34.622Z,989.40
2023-04-01T09:17:34.565Z,989.47
2023-04-01T09:18:34.489Z,989.45
2023-04-01T09:19:34.483Z,989.45
2023-04-01T09:20:34.543Z,989.41
2023-04-01T09:21:34.465Z,989.47
2023-04-01T09:22:34.466Z,989.44
2023-04-01T09:23:34.437Z,989.46
2023-04-01T09:24:34.430Z,989.46
2023-04-01T09:25:34.688Z,989.45
2023-04-01T09:26:34.434Z,989.48
2023-04-01T09:27:34.544Z,989.53
2023-04-01T09:28:34.481Z,989.51
2023-04-01T09:29:34.385Z,989.58
2023-04-01T09:30:35.067Z,989.57
2023-04-01T09:31:34.423Z,989.58
2023-04-01T09:32:34.438Z,989.61
2023-04-01T09:33:34.335Z,989.61
2023-04-01T09:34:34.320Z,989.65
2023-04-01T09:35:34.756Z,989.62
2023-04-01T09:36:34.305Z,989.61
2023-04-01T09:37:34.449Z,989.64
2023-04-01T09:38:34.294Z,989.66
2023-04-01T09:39:34.318Z,989.60
2023-04-01T09:40:34.305Z,989.63
2023-04-01T09:41:34.271Z,989.62
2023-04-01T09:42:34.269Z,989.68
2023-04-01T09:43:34.341Z,989.64
2023-04-01T09:44:35.137Z,989.67
2023-04-01T09:45:34.504Z,989.64
2023-04-01T09:46:35.820Z,989.70
2023-04-01T09:47:34.203Z,989.66
2023-04-01T09:48:35.080Z,989.66
2023-04-01T09:49:34.190Z,989.68
2023-04-01T09:50:34.199Z,989.63
2023-04-01T09:51:34.233Z,989.69
2023-04-01T09:52:34.139Z,989.67
2023-04-01T09:53:34.271Z,989.72
2023-04-01T09:54:34.101Z,989.74
2023-04-01T09:55:34.419Z,989.75
2023-04-01T09:56:34.394Z,989.68
2023-04-01T09:57:34.265Z,989.71
2023-04-01T09:58:34.115Z,989.69
2023-04-01T09:59:34.053Z,989.73
2023-04-01T10:00:34.081Z,989.76
2023-04-01T10:01:34.056Z,989.76
2023-04-01T10:02:34.023Z,989.76
2023-04-01T10:03:34.007Z,989.73
2023-04-01T10:04:34.220Z,989.76
2023-04-01T10:05:34.194Z,989.75
2023-04-01T10:06:33.988Z,989.76
2023-04-01T10:07:33.961Z,989.81
2023-04-01T10:08:34.017Z,989.82
2023-04-01T10:09:33.943Z,989.78
2023-04-01T10:10:33.921Z,989.83
2023-04-01T10:11:33.912Z,989.78
2023-04-01T10:12:33.927Z,989.87
2023-04-01T10:13:33.894Z,989.90
2023-04-01T10:14:33.882Z,989.90
2023-04-01T10:15:34.128Z,989.88
2023-04-01T10:16:33.889Z,989.89
2023-04-01T10:17:33.890Z,989.91
2023-04-01T10:18:33.833Z,989.94
2023-04-01T10:19:33.886Z,989.94
2023-04-01T10:20:33.847Z,989.91
2023-04-01T10:21:33.800Z,989.95
2023-04-01T10:22:33.792Z,989.94
2023-04-01T10:23:33.790Z,989.96
2023-04-01T10:24:33.774Z,989.99
2023-04-01T10:25:33.985Z,989.98
2023-04-01T10:26:33.776Z,989.96
2023-04-01T10:27:33.769Z,989.97
2023-04-01T10:28:33.746Z,989.94
2023-04-01T10:29:33.730Z,990.00
2023-04-01T10:30:33.707Z,990.01
2023-04-01T10:31:33.730Z,990.02
2023-04-01T10:32:33.776Z,990.01
2023-04-01T10:33:33.678Z,990.01
2023-04-01T10:34:33.696Z,989.99
2023-04-01T10:35:33.859Z,990.01
2023-04-01T10:36:33.654Z,990.00
2023-04-01T10:37:33.705Z,990.02
2023-04-01T10:38:33.616Z,990.03
2023-04-01T10:39:33.723Z,990.03
2023-04-01T10:40:33.599Z,990.02
2023-04-01T10:41:33.595Z,990.03
2023-04-01T10:42:33.752Z,990.04
2023-04-01T10:43:33.578Z,990.00
2023-04-01T10:44:33.547Z,990.01
2023-04-01T10:45:33.757Z,990.04
2023-04-01T10:46:33.612Z,990.02
2023-04-01T10:47:33.603Z,990.01
2023-04-01T10:48:33.539Z,990.03
2023-04-01T10:49:33.618Z,990.02
2023-04-01T10:50:33.478Z,990.06
2023-04-01T10:51:33.577Z,990.04
2023-04-01T10:52:33.456Z,990.07
2023-04-01T10:53:33.453Z,990.06
2023-04-01T10:54:33.455Z,990.07
2023-04-01T10:55:33.622Z,990.11
2023-04-01T10:56:33.417Z,990.09
2023-04-01T10:57:33.520Z,990.10
2023-04-01T10:58:33.505Z,990.12
2023-04-01T10:59:33.408Z,990.11
2023-04-01T11:00:33.449Z,990.11
2023-04-01T11:01:33.473Z,990.06
2023-04-01T11:02:33.441Z,990.14
2023-04-01T11:03:33.501Z,990.11
2023-04-01T11:04:33.324Z,990.09
2023-04-01T11:05:33.674Z,990.13
2023-04-01T11:06:33.312Z,990.08
2023-04-01T11:07:33.344Z,990.14
2023-04-01T11:08:33.292Z,990.09
2023-04-01T11:09:33.281Z,990.05
2023-04-01T11:10:33.276Z,990.09
2023-04-01T11:11:33.281Z,990.08
2023-04-01T11:12:33.244Z,990.07
2023-04-01T11:13:33.304Z,990.10
2023-04-01T11:14:33.222Z,990.13
2023-04-01T11:15:33.536Z,990.14
2023-04-01T11:16:33.232Z,990.12
2023-04-01T11:17:33.563Z,990.15
2023-04-01T11:18:33.181Z,990.17
2023-04-01T11:19:33.159Z,990.16
2023-04-01T11:20:33.147Z,990.15
2023-04-01T11:21:33.218Z,990.20
2023-04-01T11:22:33.528Z,990.15
2023-04-01T11:23:33.123Z,990.23
2023-04-01T11:24:33.113Z,990.21
2023-04-01T11:25:33.240Z,990.19
2023-04-01T11:26:33.199Z,990.21
2023-04-01T11:27:33.074Z,990.23
2023-04-01T11:28:33.090Z,990.20
2023-04-01T11:29:33.059Z,990.25
2023-04-01T11:30:33.042Z,990.24
2023-04-01T11:31:33.097Z,990.20
2023-04-01T11:32:33.111Z,990.17
2023-04-01T11:33:33.014Z,990.16
2023-04-01T11:34:33.020Z,990.19
2023-04-01T11:35:33.245Z,990.23
2023-04-01T11:36:32.990Z,990.20
2023-04-01T11:37:32.966Z,990.26
2023-04-01T11:38:32.983Z,990.24
2023-04-01T11:39:32.942Z,990.23
2023-04-01T11:40:32.931Z,990.28
2023-04-01T11:41:32.926Z,990.29
2023-04-01T11:42:32.910Z,990.31
2023-04-01T11:43:34.042Z,990.30
2023-04-01T11:44:32.907Z,990.28
2023-04-01T11:45:33.145Z,990.29
2023-04-01T11:46:33.015Z,990.32
2023-04-01T11:47:32.913Z,990.31
2023-04-01T11:48:32.852Z,990.36
2023-04-01T11:49:32.837Z,990.32
2023-04-01T11:50:32.841Z,990.38
2023-04-01T11:51:33.014Z,990.36
2023-04-01T11:52:32.854Z,990.38
2023-04-01T11:53:32.835Z,990.42
2023-04-01T11:54:32.869Z,990.45
2023-04-01T11:55:33.020Z,990.43
2023-04-01T11:56:32.799Z,990.44
2023-04-01T11:57:32.811Z,990.48
2023-04-01T11:58:32.734Z,990.47
2023-04-01T11:59:32.740Z,990.52
2023-04-01T12:00:32.724Z,990.51
2023-04-01T12:01:32.731Z,990.53
2023-04-01T12:02:32.760Z,990.57
2023-04-01T12:03:32.806Z,990.58
2023-04-01T12:04:32.839Z,990.58
2023-04-01T12:05:32.941Z,990.58
2023-04-01T12:06:32.778Z,990.59
2023-04-01T12:07:32.722Z,990.63
2023-04-01T12:08:32.658Z,990.63
2023-04-01T12:09:32.649Z,990.65
2023-04-01T12:10:32.605Z,990.64
2023-04-01T12:11:32.615Z,990.68
2023-04-01T12:12:32.579Z,990.68
2023-04-01T12:13:32.574Z,990.70
2023-04-01T12:14:32.622Z,990.75
2023-04-01T12:15:32.751Z,990.73
2023-04-01T12:16:32.601Z,990.72
2023-04-01T12:17:32.552Z,990.69
2023-04-01T12:18:32.524Z,990.73
2023-04-01T12:19:32.510Z,990.75
2023-04-01T12:20:32.493Z,990.71
2023-04-01T12:21:32.488Z,990.76
2023-04-01T12:22:33.899Z,990.75
2023-04-01T12:23:32.461Z,990.79
2023-04-01T12:24:32.458Z,990.81
2023-04-01T12:25:32.578Z,990.72
2023-04-01T12:26:32.435Z,990.77
2023-04-01T12:27:32.448Z,990.76
2023-04-01T12:28:32.404Z,990.76